AEZ2602 LIRF-LICJ
Flight info
| Callsign | AEZ2602 |
|---|---|
| Flight time | 0h 41m |
| Altitude | 31000 |
| Route | ROTUN DCT GIANO |
| Aircraft | B738/M-SDE2E3FGHIRWXY/LB1 |
Departure
| Time | 2026-05-04 14:16 |
|---|---|
| Airport | Rome–Fiumicino Leonardo da Vinci International Airport (LIRF) |
Arrival
| Time | 2026-05-04 14:57 |
|---|---|
| Airport | Falcone–Borsellino Airport (LICJ) |
| Time | Latitude | Longitude | Altitude | Speed | Heading |
|---|---|---|---|---|---|
| 2026-05-04 14:05 | 41.80057 | 12.26546 | 13 ft | 0 kts | 250° |
| 2026-05-04 14:13 | 41.80056 | 12.26545 | 14 ft | 1 kts | 250° |
| 2026-05-04 14:13 | 41.80061 | 12.26493 | 13 ft | 9 kts | 307° |
| 2026-05-04 14:13 | 41.80135 | 12.26438 | 13 ft | 15 kts | 336° |
| 2026-05-04 14:14 | 41.80253 | 12.26394 | 14 ft | 20 kts | 328° |
| 2026-05-04 14:14 | 41.80457 | 12.26174 | 15 ft | 19 kts | 0° |
| 2026-05-04 14:14 | 41.80583 | 12.26135 | 15 ft | 19 kts | 343° |
| 2026-05-04 14:15 | 41.80655 | 12.25836 | 17 ft | 55 kts | 249° |
| 2026-05-04 14:15 | 41.80103 | 12.23834 | 145 ft | 154 kts | 245° |
| 2026-05-04 14:16 | 41.79390 | 12.21130 | 1399 ft | 161 kts | 243° |
| 2026-05-04 14:16 | 41.79208 | 12.19516 | 1670 ft | 191 kts | 267° |
| 2026-05-04 14:17 | 41.79150 | 12.15722 | 2680 ft | 211 kts | 258° |
| 2026-05-04 14:17 | 41.78502 | 12.14084 | 3298 ft | 197 kts | 218° |
| 2026-05-04 14:17 | 41.76388 | 12.11618 | 4397 ft | 202 kts | 219° |
| 2026-05-04 14:18 | 41.75340 | 12.10344 | 4898 ft | 206 kts | 220° |
| 2026-05-04 14:18 | 41.73217 | 12.07728 | 5999 ft | 207 kts | 220° |
| 2026-05-04 14:19 | 41.71064 | 12.05087 | 7069 ft | 210 kts | 215° |
| 2026-05-04 14:19 | 41.69714 | 12.04385 | 7438 ft | 218 kts | 186° |
| 2026-05-04 14:19 | 41.68126 | 12.04318 | 7618 ft | 237 kts | 180° |
| 2026-05-04 14:19 | 41.66400 | 12.04339 | 7819 ft | 259 kts | 180° |
| 2026-05-04 14:20 | 41.64559 | 12.04359 | 8362 ft | 269 kts | 180° |
| 2026-05-04 14:20 | 41.62674 | 12.04273 | 9053 ft | 273 kts | 190° |
| 2026-05-04 14:20 | 41.60761 | 12.04086 | 9730 ft | 281 kts | 177° |
| 2026-05-04 14:21 | 41.56861 | 12.04842 | 11226 ft | 286 kts | 174° |
| 2026-05-04 14:21 | 41.54892 | 12.05237 | 11825 ft | 294 kts | 174° |
| 2026-05-04 14:21 | 41.52815 | 12.05629 | 12534 ft | 299 kts | 175° |
| 2026-05-04 14:21 | 41.50761 | 12.05987 | 13274 ft | 303 kts | 176° |
| 2026-05-04 14:22 | 41.48648 | 12.06317 | 13998 ft | 308 kts | 177° |
| 2026-05-04 14:22 | 41.46502 | 12.06638 | 14673 ft | 312 kts | 177° |
| 2026-05-04 14:22 | 41.44334 | 12.06962 | 15399 ft | 316 kts | 177° |
| 2026-05-04 14:22 | 41.42080 | 12.07295 | 15657 ft | 337 kts | 177° |
| 2026-05-04 14:23 | 41.37119 | 12.08030 | 15999 ft | 379 kts | 177° |
| 2026-05-04 14:23 | 41.34458 | 12.08432 | 16407 ft | 389 kts | 177° |
| 2026-05-04 14:23 | 41.31750 | 12.08845 | 17047 ft | 393 kts | 177° |
| 2026-05-04 14:24 | 41.29025 | 12.09264 | 17754 ft | 395 kts | 177° |
| 2026-05-04 14:24 | 41.26283 | 12.09685 | 18403 ft | 399 kts | 177° |
| 2026-05-04 14:24 | 41.23510 | 12.10108 | 18934 ft | 403 kts | 177° |
| 2026-05-04 14:24 | 41.20707 | 12.10535 | 19467 ft | 408 kts | 177° |
| 2026-05-04 14:25 | 41.17871 | 12.10966 | 19980 ft | 412 kts | 176° |
| 2026-05-04 14:25 | 41.12126 | 12.11837 | 20992 ft | 420 kts | 176° |
| 2026-05-04 14:25 | 41.09210 | 12.12278 | 21464 ft | 424 kts | 176° |
| 2026-05-04 14:26 | 41.06254 | 12.12724 | 21944 ft | 429 kts | 176° |
| 2026-05-04 14:26 | 41.03280 | 12.13173 | 22423 ft | 433 kts | 176° |
| 2026-05-04 14:26 | 41.00273 | 12.13627 | 22899 ft | 436 kts | 176° |
| 2026-05-04 14:26 | 40.97249 | 12.14083 | 23358 ft | 440 kts | 176° |
| 2026-05-04 14:27 | 40.94185 | 12.14545 | 23784 ft | 444 kts | 176° |
| 2026-05-04 14:27 | 40.91099 | 12.15009 | 24152 ft | 448 kts | 176° |
| 2026-05-04 14:27 | 40.88028 | 12.15470 | 24508 ft | 451 kts | 177° |
| 2026-05-04 14:27 | 40.84906 | 12.15938 | 24893 ft | 454 kts | 177° |
| 2026-05-04 14:28 | 40.81756 | 12.16411 | 25289 ft | 456 kts | 178° |
| 2026-05-04 14:28 | 40.78586 | 12.16886 | 25660 ft | 459 kts | 178° |
| 2026-05-04 14:28 | 40.75403 | 12.17362 | 26011 ft | 462 kts | 178° |
| 2026-05-04 14:28 | 40.72191 | 12.17842 | 26359 ft | 465 kts | 178° |
| 2026-05-04 14:29 | 40.65712 | 12.18808 | 26989 ft | 472 kts | 179° |
| 2026-05-04 14:29 | 40.59148 | 12.19786 | 27658 ft | 477 kts | 179° |
| 2026-05-04 14:30 | 40.55838 | 12.20279 | 27984 ft | 480 kts | 179° |
| 2026-05-04 14:30 | 40.52510 | 12.20774 | 28297 ft | 482 kts | 180° |
| 2026-05-04 14:30 | 40.45802 | 12.21770 | 28952 ft | 486 kts | 180° |
| 2026-05-04 14:31 | 40.42454 | 12.22268 | 29437 ft | 484 kts | 180° |
| 2026-05-04 14:31 | 40.35783 | 12.23261 | 30359 ft | 481 kts | 181° |
| 2026-05-04 14:32 | 40.29156 | 12.24242 | 31101 ft | 479 kts | 181° |
| 2026-05-04 14:32 | 40.22486 | 12.25221 | 31114 ft | 482 kts | 180° |
| 2026-05-04 14:33 | 40.15908 | 12.26192 | 31114 ft | 476 kts | 180° |
| 2026-05-04 14:33 | 40.09322 | 12.27159 | 31127 ft | 477 kts | 180° |
| 2026-05-04 14:34 | 40.02728 | 12.28123 | 31119 ft | 477 kts | 180° |
| 2026-05-04 14:34 | 39.96120 | 12.29088 | 31116 ft | 478 kts | 180° |
| 2026-05-04 14:35 | 39.89505 | 12.30054 | 31116 ft | 478 kts | 180° |
| 2026-05-04 14:35 | 39.82895 | 12.31018 | 31116 ft | 478 kts | 180° |
| 2026-05-04 14:36 | 39.76276 | 12.31980 | 31114 ft | 478 kts | 180° |
| 2026-05-04 14:36 | 39.69665 | 12.32940 | 31113 ft | 478 kts | 180° |
| 2026-05-04 14:37 | 39.63056 | 12.33898 | 31112 ft | 477 kts | 180° |
| 2026-05-04 14:37 | 39.56432 | 12.34853 | 30343 ft | 482 kts | 179° |
| 2026-05-04 14:37 | 39.53105 | 12.35333 | 29558 ft | 480 kts | 179° |
| 2026-05-04 14:38 | 39.49793 | 12.35812 | 28744 ft | 479 kts | 179° |
| 2026-05-04 14:38 | 39.46482 | 12.36289 | 27913 ft | 479 kts | 178° |
| 2026-05-04 14:38 | 39.43167 | 12.36767 | 27203 ft | 476 kts | 178° |
| 2026-05-04 14:38 | 39.39898 | 12.37240 | 26622 ft | 471 kts | 178° |
| 2026-05-04 14:39 | 39.36661 | 12.37707 | 25996 ft | 466 kts | 178° |
| 2026-05-04 14:39 | 39.33445 | 12.38169 | 25403 ft | 461 kts | 178° |
| 2026-05-04 14:39 | 39.30266 | 12.38625 | 24823 ft | 457 kts | 177° |
| 2026-05-04 14:40 | 39.24003 | 12.39522 | 23657 ft | 450 kts | 177° |
| 2026-05-04 14:40 | 39.20937 | 12.39960 | 22967 ft | 447 kts | 177° |
| 2026-05-04 14:40 | 39.17864 | 12.40399 | 22348 ft | 442 kts | 177° |
| 2026-05-04 14:40 | 39.14828 | 12.40832 | 21770 ft | 437 kts | 176° |
| 2026-05-04 14:41 | 39.11817 | 12.41260 | 21168 ft | 433 kts | 177° |
| 2026-05-04 14:41 | 39.08835 | 12.41686 | 20593 ft | 429 kts | 177° |
| 2026-05-04 14:41 | 39.02953 | 12.42524 | 19460 ft | 421 kts | 177° |
| 2026-05-04 14:42 | 38.97169 | 12.43345 | 18341 ft | 415 kts | 176° |
| 2026-05-04 14:42 | 38.94307 | 12.43751 | 17694 ft | 412 kts | 176° |
| 2026-05-04 14:42 | 38.91468 | 12.44153 | 17098 ft | 408 kts | 176° |
| 2026-05-04 14:43 | 38.88660 | 12.44552 | 16524 ft | 404 kts | 176° |
| 2026-05-04 14:43 | 38.85909 | 12.45239 | 15941 ft | 406 kts | 161° |
| 2026-05-04 14:43 | 38.83366 | 12.46778 | 15460 ft | 402 kts | 156° |
| 2026-05-04 14:43 | 38.80863 | 12.48351 | 14902 ft | 399 kts | 156° |
| 2026-05-04 14:44 | 38.78365 | 12.49895 | 14360 ft | 396 kts | 156° |
| 2026-05-04 14:44 | 38.75884 | 12.51407 | 13799 ft | 394 kts | 157° |
| 2026-05-04 14:44 | 38.73441 | 12.52883 | 13198 ft | 391 kts | 157° |
| 2026-05-04 14:44 | 38.70987 | 12.54357 | 12635 ft | 388 kts | 157° |
| 2026-05-04 14:45 | 38.68553 | 12.55815 | 12090 ft | 384 kts | 157° |
| 2026-05-04 14:45 | 38.66141 | 12.57258 | 11531 ft | 380 kts | 157° |
| 2026-05-04 14:45 | 38.63755 | 12.58685 | 11119 ft | 373 kts | 156° |
| 2026-05-04 14:45 | 38.61449 | 12.60064 | 10976 ft | 359 kts | 156° |
| 2026-05-04 14:46 | 38.59221 | 12.61396 | 10815 ft | 347 kts | 157° |
| 2026-05-04 14:46 | 38.57067 | 12.62682 | 10666 ft | 336 kts | 157° |
| 2026-05-04 14:46 | 38.54988 | 12.63922 | 10521 ft | 325 kts | 157° |
| 2026-05-04 14:46 | 38.52972 | 12.65124 | 10440 ft | 313 kts | 157° |
| 2026-05-04 14:47 | 38.51031 | 12.66272 | 10353 ft | 299 kts | 158° |
| 2026-05-04 14:47 | 38.49182 | 12.67346 | 10157 ft | 286 kts | 158° |
| 2026-05-04 14:47 | 38.47379 | 12.68386 | 9729 ft | 283 kts | 158° |
| 2026-05-04 14:47 | 38.45586 | 12.69418 | 9247 ft | 282 kts | 158° |
| 2026-05-04 14:48 | 38.43803 | 12.70444 | 8790 ft | 280 kts | 158° |
| 2026-05-04 14:48 | 38.42033 | 12.71465 | 8332 ft | 278 kts | 157° |
| 2026-05-04 14:48 | 38.40274 | 12.72479 | 7884 ft | 277 kts | 157° |
| 2026-05-04 14:48 | 38.38525 | 12.73488 | 7456 ft | 274 kts | 157° |
| 2026-05-04 14:49 | 38.36795 | 12.74486 | 7044 ft | 272 kts | 157° |
| 2026-05-04 14:49 | 38.35082 | 12.75473 | 6632 ft | 269 kts | 157° |
| 2026-05-04 14:49 | 38.33381 | 12.76454 | 6205 ft | 267 kts | 157° |
| 2026-05-04 14:49 | 38.31723 | 12.77409 | 5832 ft | 263 kts | 157° |
| 2026-05-04 14:50 | 38.30054 | 12.78370 | 5477 ft | 257 kts | 157° |
| 2026-05-04 14:50 | 38.28453 | 12.79292 | 5087 ft | 254 kts | 157° |
| 2026-05-04 14:50 | 38.26854 | 12.80213 | 4697 ft | 250 kts | 157° |
| 2026-05-04 14:50 | 38.25271 | 12.81123 | 4255 ft | 249 kts | 157° |
| 2026-05-04 14:51 | 38.23699 | 12.82027 | 3842 ft | 247 kts | 157° |
| 2026-05-04 14:51 | 38.22138 | 12.82924 | 3425 ft | 245 kts | 157° |
| 2026-05-04 14:51 | 38.20592 | 12.83813 | 3002 ft | 244 kts | 157° |
| 2026-05-04 14:51 | 38.19051 | 12.84697 | 2847 ft | 238 kts | 157° |
| 2026-05-04 14:52 | 38.17559 | 12.85554 | 2699 ft | 232 kts | 156° |
| 2026-05-04 14:52 | 38.16118 | 12.86380 | 2620 ft | 221 kts | 158° |
| 2026-05-04 14:52 | 38.14754 | 12.87166 | 2495 ft | 209 kts | 158° |
| 2026-05-04 14:52 | 38.13467 | 12.87904 | 2380 ft | 196 kts | 159° |
| 2026-05-04 14:53 | 38.12322 | 12.88730 | 2292 ft | 186 kts | 137° |
| 2026-05-04 14:53 | 38.11756 | 12.90143 | 2294 ft | 177 kts | 107° |
| 2026-05-04 14:53 | 38.11761 | 12.91682 | 2307 ft | 178 kts | 80° |
| 2026-05-04 14:53 | 38.12188 | 12.93181 | 2329 ft | 182 kts | 70° |
| 2026-05-04 14:54 | 38.12687 | 12.94661 | 2314 ft | 182 kts | 70° |
| 2026-05-04 14:54 | 38.13199 | 12.96151 | 2152 ft | 187 kts | 71° |
| 2026-05-04 14:54 | 38.13702 | 12.97616 | 1916 ft | 178 kts | 70° |
| 2026-05-04 14:54 | 38.14183 | 12.99019 | 1741 ft | 167 kts | 71° |
| 2026-05-04 14:55 | 38.14632 | 13.00344 | 1471 ft | 160 kts | 70° |
| 2026-05-04 14:55 | 38.15059 | 13.01607 | 1283 ft | 152 kts | 69° |
| 2026-05-04 14:55 | 38.15467 | 13.02811 | 1042 ft | 143 kts | 66° |
| 2026-05-04 14:55 | 38.15866 | 13.03951 | 794 ft | 140 kts | 68° |
| 2026-05-04 14:56 | 38.16236 | 13.05066 | 566 ft | 134 kts | 70° |
| 2026-05-04 14:56 | 38.16570 | 13.06187 | 453 ft | 138 kts | 66° |
| 2026-05-04 14:56 | 38.16969 | 13.07305 | 302 ft | 140 kts | 66° |
| 2026-05-04 14:56 | 38.17350 | 13.08439 | 157 ft | 142 kts | 65° |
| 2026-05-04 14:57 | 38.17744 | 13.09582 | 52 ft | 135 kts | 66° |
| 2026-05-04 14:57 | 38.18024 | 13.10448 | 50 ft | 63 kts | 69° |
| 2026-05-04 14:57 | 38.18100 | 13.10637 | 50 ft | 15 kts | 60° |
| 2026-05-04 14:57 | 38.18162 | 13.10718 | 52 ft | 11 kts | 346° |
| 2026-05-04 14:58 | 38.18174 | 13.10657 | 52 ft | 8 kts | 275° |
| 2026-05-04 14:58 | 38.18180 | 13.10599 | 52 ft | 13 kts | 277° |
| 2026-05-04 14:58 | 38.18192 | 13.10467 | 51 ft | 15 kts | 276° |
| 2026-05-04 14:58 | 38.18252 | 13.10367 | 52 ft | 15 kts | 343° |
| 2026-05-04 14:59 | 38.18320 | 13.10446 | 52 ft | 14 kts | 61° |
| 2026-05-04 14:59 | 38.18403 | 13.10505 | 50 ft | 10 kts | 21° |
| 2026-05-04 14:59 | 38.18435 | 13.10551 | 52 ft | 5 kts | 96° |
| 2026-05-04 15:00 | 38.18393 | 13.10591 | 52 ft | 3 kts | 157° |
| 2026-05-04 15:00 | 38.18386 | 13.10594 | 49 ft | 0 kts | 159° |